In Rescue
 
Open Full Screen Window  High Contrast Mode
Wind Gusting 16 knots
11
January 20, 2021 5:38 PM CST
Weather Information
Wind Direction
  250 °
Wind Speed
  11 kt (13 mph)
Wind Gust
  16 kt (18 mph)
Altimeter
29.60 in
Visibility
10 SM
Temperature
03° C
37° F
Dewpoint
-03° C
27° F
Humidity
65%
1hr Rain Fall
00.00 in.
24hr Rain Fall
00.00 in.
Sky Condition
Clear
VFR

METAR KLVN 202338Z AUTO 25011G16KT 10SM CLR 03/M03 A2960 RMK AO2

FAA Disclaimer: The data displayed is for advisory purposes only and is not to be used for flight planning or operations.